Terminal Aerodrome Forecast
Issued by NWS

Home | Current Version | Previous Version | Text Only | Print | Product List | Glossary Off
Versions: 1 2 3 4 5 6 7 8 9 10 11 12 13 14 15

000
FTUS45 KGGW 252321
TAFGDV
TAF
KGDV 252321Z 2600/2624 VRB05KT 1SM -SNRA BR OVC005
     FM260200 VRB05KT 5SM BR OVC003
     FM261200 03007KT 4SM BR OVC003
     FM261500 04007KT P6SM VCSH OVC003
     FM261800 05008KT P6SM VCSH OVC010
      AMD LTD TO CLD VIS AND WIND=

USA.gov is the U.S. government's official web portal to all federal, state and local government web resources and services.